Time;durP1;ratioP1;P1;durP2;ratioP2;P2;SDS_P1;SDS_P2;PMS_P1;PMS_P2;Temp;Humidity;BMP_temperature;BMP_pressure;BME280_temperature;BME280_humidity;BME280_pressure;Samples;Min_cycle;Max_cycle;Signal;HPM_P1;HPM_P2
2023/11/19 00:00:14;;;;;;;3.45;1.58;;;;;;;16.89;100.00;101008.88;5033170;28;20060;-63
2023/11/19 00:02:41;;;;;;;4.38;1.20;;;;;;;16.63;100.00;101007.59;5041291;28;20064;-64
2023/11/19 00:05:11;;;;;;;3.58;1.38;;;;;;;16.88;100.00;101002.88;5055358;28;20064;-64
2023/11/19 00:07:43;;;;;;;3.90;1.20;;;;;;;17.04;100.00;101003.75;5031510;28;20056;-64
2023/11/19 00:10:15;;;;;;;4.05;1.58;;;;;;;16.77;100.00;101002.53;5055163;28;20056;-63
2023/11/19 00:12:45;;;;;;;1.75;0.82;;;;;;;16.89;100.00;101006.09;5034299;28;20496;-63
2023/11/19 00:15:13;;;;;;;6.43;2.97;;;;;;;17.09;100.00;101003.50;5049157;28;20053;-63
2023/11/19 00:17:44;;;;;;;3.97;1.30;;;;;;;16.54;100.00;101009.69;5044493;28;20508;-64
2023/11/19 00:20:19;;;;;;;6.30;1.80;;;;;;;16.74;100.00;100995.66;5047996;28;20111;-63
2023/11/19 00:22:48;;;;;;;3.95;1.40;;;;;;;17.00;100.00;100994.50;5041951;28;20060;-64
2023/11/19 00:25:18;;;;;;;4.13;1.70;;;;;;;16.88;100.00;100986.97;5020984;28;20132;-64
2023/11/19 00:27:45;;;;;;;4.32;1.60;;;;;;;16.87;100.00;100996.47;5053926;28;20052;-60
2023/11/19 00:30:13;;;;;;;4.95;1.50;;;;;;;16.88;100.00;100986.16;5037441;28;20049;-59
2023/11/19 00:32:41;;;;;;;4.18;1.30;;;;;;;17.01;100.00;100984.97;5035203;28;20041;-61
2023/11/19 00:35:15;;;;;;;4.93;1.20;;;;;;;16.93;100.00;100975.59;5036001;28;20411;-60
2023/11/19 00:37:45;;;;;;;6.25;1.67;;;;;;;16.95;100.00;100975.22;5036935;28;20052;-61
2023/11/19 00:40:15;;;;;;;8.88;1.60;;;;;;;16.85;100.00;100971.78;5053719;28;20060;-59
2023/11/19 00:42:43;;;;;;;7.40;1.33;;;;;;;16.79;100.00;100966.78;5054917;28;20476;-60
2023/11/19 00:45:12;;;;;;;3.53;1.25;;;;;;;16.86;100.00;100965.06;5070588;28;20071;-59
2023/11/19 00:47:39;;;;;;;2.88;1.10;;;;;;;16.72;100.00;100961.81;5032322;28;20056;-60
2023/11/19 00:50:10;;;;;;;5.38;1.20;;;;;;;16.97;100.00;100973.75;5047635;28;20044;-60
2023/11/19 00:52:38;;;;;;;7.00;1.40;;;;;;;16.88;100.00;100965.53;5047550;28;20052;-60
2023/11/19 00:55:06;;;;;;;3.08;1.17;;;;;;;16.80;100.00;100972.03;5055156;28;20064;-60
2023/11/19 00:57:41;;;;;;;6.25;1.30;;;;;;;16.97;100.00;100967.34;5051934;28;20049;-60
2023/11/19 01:00:19;;;;;;;6.05;1.20;;;;;;;17.04;100.00;100982.31;5036600;28;20051;-60
2023/11/19 01:02:49;;;;;;;2.55;1.33;;;;;;;17.02;100.00;100981.03;5057826;28;20148;-60
2023/11/19 01:05:22;;;;;;;3.28;1.42;;;;;;;16.98;100.00;100977.34;5041743;28;20508;-61
2023/11/19 01:07:53;;;;;;;4.40;0.90;;;;;;;16.82;100.00;100977.25;5030216;28;20811;-61
2023/11/19 01:10:25;;;;;;;4.35;1.00;;;;;;;16.83;100.00;100978.84;5030622;28;20049;-61
2023/11/19 01:12:53;;;;;;;3.47;1.10;;;;;;;16.96;100.00;100968.53;5033717;28;20492;-61
2023/11/19 01:15:47;;;;;;;3.13;1.00;;;;;;;17.08;100.00;100977.69;5034224;28;20045;-60
2023/11/19 01:18:15;;;;;;;3.72;1.00;;;;;;;17.14;100.00;100969.91;5016893;28;20045;-60
2023/11/19 01:20:43;;;;;;;4.40;0.80;;;;;;;17.05;100.00;100983.91;5022185;28;20033;-60
2023/11/19 01:23:10;;;;;;;6.68;1.05;;;;;;;16.96;100.00;100979.66;5033828;28;20052;-59
2023/11/19 01:25:38;;;;;;;4.07;1.00;;;;;;;16.92;100.00;100973.16;5037101;28;20454;-60
2023/11/19 01:28:20;;;;;;;4.32;1.02;;;;;;;16.92;100.00;100976.75;5052679;28;20052;-61
2023/11/19 01:30:51;;;;;;;4.00;1.10;;;;;;;17.04;100.00;100981.50;5019543;28;20057;-61
2023/11/19 01:33:21;;;;;;;3.00;0.77;;;;;;;16.97;100.00;100984.88;5002402;28;20057;-59
2023/11/19 01:35:52;;;;;;;2.85;1.15;;;;;;;16.93;100.00;100983.16;5036698;28;20061;-60
2023/11/19 01:38:20;;;;;;;3.13;1.20;;;;;;;16.97;100.00;100982.09;5034440;28;20049;-61
2023/11/19 01:40:55;;;;;;;5.28;1.15;;;;;;;17.09;100.00;100975.69;5036312;28;20041;-60
2023/11/19 01:43:43;;;;;;;4.32;0.88;;;;;;;16.97;100.00;100987.66;5051885;28;20051;-60
2023/11/19 01:46:11;;;;;;;4.15;1.08;;;;;;;16.86;100.00;100989.28;5078243;28;20051;-60
2023/11/19 01:48:45;;;;;;;4.53;0.82;;;;;;;16.81;100.00;100989.50;5054225;28;20052;-60
2023/11/19 01:51:16;;;;;;;3.40;0.98;;;;;;;17.18;100.00;100990.28;5033174;28;20048;-61
2023/11/19 01:53:45;;;;;;;3.67;1.08;;;;;;;17.17;100.00;100992.28;5053320;28;20055;-61
2023/11/19 01:56:14;;;;;;;4.75;0.90;;;;;;;16.89;100.00;100999.72;5054023;28;20049;-59
2023/11/19 01:58:43;;;;;;;2.80;1.00;;;;;;;17.04;100.00;100999.00;5075496;28;20056;-60
2023/11/19 02:01:12;;;;;;;6.90;1.40;;;;;;;16.92;100.00;100999.03;5035608;28;20496;-60
2023/11/19 02:03:39;;;;;;;4.43;1.00;;;;;;;16.97;100.00;100986.84;5019745;28;20510;-60
2023/11/19 02:06:08;;;;;;;6.18;1.40;;;;;;;16.89;100.00;100981.03;5035788;28;20048;-64
2023/11/19 02:08:38;;;;;;;7.20;1.20;;;;;;;17.02;100.00;100976.28;5053295;28;20064;-64
2023/11/19 02:11:07;;;;;;;3.88;1.27;;;;;;;17.05;100.00;100975.56;5053327;28;20473;-63
2023/11/19 02:13:37;;;;;;;7.28;1.23;;;;;;;16.97;100.00;100973.75;5053346;28;20048;-64
2023/11/19 02:16:04;;;;;;;;;;;;;;;16.92;100.00;100970.38;5036759;28;20064;-64
2023/11/19 02:18:32;;;;;;;4.57;1.08;;;;;;;16.96;100.00;100974.91;5053327;28;19920;-64
2023/11/19 02:21:00;;;;;;;6.35;1.55;;;;;;;16.83;100.00;100976.06;5035373;28;20049;-63
2023/11/19 02:23:28;;;;;;;5.50;1.38;;;;;;;16.71;100.00;100963.00;5034830;28;20052;-64
2023/11/19 02:26:13;;;;;;;5.72;1.15;;;;;;;16.57;100.00;100975.63;5035867;28;20048;-64
2023/11/19 02:28:41;;;;;;;4.25;1.23;;;;;;;16.65;100.00;100969.94;5053320;28;20638;-65
2023/11/19 02:31:09;;;;;;;5.25;1.17;;;;;;;16.67;100.00;100972.34;5053230;28;20056;-65
2023/11/19 02:33:37;;;;;;;6.68;1.30;;;;;;;16.82;100.00;100974.47;5054390;28;20068;-64
2023/11/19 02:36:06;;;;;;;6.15;1.55;;;;;;;16.86;100.00;100975.38;5051652;28;20499;-63
2023/11/19 02:38:35;;;;;;;11.20;1.52;;;;;;;16.74;100.00;100980.94;5035201;28;20045;-63
2023/11/19 02:41:06;;;;;;;8.90;1.30;;;;;;;16.53;100.00;100980.22;5052999;28;20049;-64
2023/11/19 02:43:34;;;;;;;8.00;1.33;;;;;;;16.66;100.00;100977.13;5034881;28;20056;-63
2023/11/19 02:46:02;;;;;;;7.90;1.60;;;;;;;16.86;100.00;100976.19;5042661;28;20056;-64
2023/11/19 02:48:43;;;;;;;7.13;1.40;;;;;;;16.82;100.00;100966.13;5054277;28;20079;-64
2023/11/19 02:51:13;;;;;;;5.63;1.52;;;;;;;16.86;100.00;100964.22;5048741;28;20053;-65
2023/11/19 02:53:41;;;;;;;8.30;1.80;;;;;;;16.93;100.00;100967.25;5050582;28;20064;-64
2023/11/19 02:56:25;;;;;;;7.47;1.73;;;;;;;16.90;100.00;100967.94;5068716;28;20063;-63
2023/11/19 02:58:53;;;;;;;7.72;1.50;;;;;;;16.85;100.00;100969.00;5047972;28;20389;-63
2023/11/19 03:01:29;;;;;;;4.88;1.30;;;;;;;16.85;100.00;100969.00;5053881;28;20059;-64
2023/11/19 03:04:00;;;;;;;10.20;1.33;;;;;;;16.62;100.00;100967.84;5029265;28;20053;-64
2023/11/19 03:06:30;;;;;;;7.43;1.52;;;;;;;16.68;100.00;100958.09;5019288;28;20072;-65
2023/11/19 03:08:58;;;;;;;9.65;1.73;;;;;;;16.68;100.00;100948.97;5034460;28;20060;-65
2023/11/19 03:11:28;;;;;;;9.63;1.70;;;;;;;16.55;100.00;100950.94;5043985;28;20052;-63
2023/11/19 03:13:55;;;;;;;8.13;1.27;;;;;;;16.59;100.00;100954.66;5029001;28;20053;-63
2023/11/19 03:16:23;;;;;;;5.85;1.02;;;;;;;16.56;100.00;100960.88;5037637;28;20060;-64
2023/11/19 03:18:50;;;;;;;6.95;1.73;;;;;;;16.37;100.00;100960.63;5036393;28;20060;-64
2023/11/19 03:21:17;;;;;;;5.82;1.45;;;;;;;16.31;100.00;100963.97;5050266;28;20049;-63
2023/11/19 03:23:48;;;;;;;11.35;1.58;;;;;;;16.30;100.00;100957.59;5067588;28;20061;-64
2023/11/19 03:26:15;;;;;;;;;;;;;;;16.35;100.00;100964.91;5055210;28;20048;-66
2023/11/19 03:28:46;;;;;;;8.70;1.50;;;;;;;16.32;100.00;100962.84;5052962;28;20399;-64
2023/11/19 03:31:14;;;;;;;8.50;1.40;;;;;;;16.48;100.00;100961.00;5041268;28;20401;-65
2023/11/19 03:33:45;;;;;;;11.65;1.67;;;;;;;16.27;100.00;100957.47;5048110;28;20053;-64
2023/11/19 03:36:13;;;;;;;8.90;1.77;;;;;;;16.22;100.00;100955.75;5034614;28;20057;-65
2023/11/19 03:38:43;;;;;;;6.60;1.48;;;;;;;16.34;100.00;100955.75;5053001;28;20079;-65
2023/11/19 03:41:12;;;;;;;8.63;1.48;;;;;;;16.43;100.00;100948.13;5020938;28;20053;-64
2023/11/19 03:43:45;;;;;;;9.02;1.50;;;;;;;16.37;100.00;100951.47;5036771;28;20060;-65
2023/11/19 03:46:17;;;;;;;6.55;1.38;;;;;;;16.37;100.00;100938.38;5037908;28;20049;-63
2023/11/19 03:48:48;;;;;;;10.50;1.60;;;;;;;16.30;100.00;100951.25;5036631;28;20049;-64
2023/11/19 03:51:15;;;;;;;6.97;1.80;;;;;;;16.42;100.00;100945.69;5054058;28;20084;-64
2023/11/19 03:53:44;;;;;;;5.03;1.40;;;;;;;16.31;100.00;100950.91;5036010;28;20739;-64
2023/11/19 03:56:12;;;;;;;10.05;1.60;;;;;;;16.37;100.00;100951.47;5054418;28;20044;-63
2023/11/19 03:58:39;;;;;;;10.13;2.13;;;;;;;16.45;100.00;100951.38;5054918;28;20068;-63
2023/11/19 04:01:12;;;;;;;7.53;1.73;;;;;;;16.40;100.00;100953.56;5054652;28;20045;-65
2023/11/19 04:03:39;;;;;;;8.07;1.55;;;;;;;16.31;100.00;100961.19;5055246;28;20049;-63
2023/11/19 04:06:18;;;;;;;10.13;1.92;;;;;;;16.26;100.00;100951.13;5053324;28;20053;-64
2023/11/19 04:08:45;;;;;;;10.90;1.50;;;;;;;16.35;100.00;100954.59;5037457;28;20068;-63
2023/11/19 04:11:12;;;;;;;7.15;1.67;;;;;;;16.38;100.00;100958.66;5054535;28;20052;-64
2023/11/19 04:13:40;;;;;;;13.43;1.90;;;;;;;16.56;100.00;100960.88;5043512;28;20057;-64
2023/11/19 04:16:07;;;;;;;8.90;2.00;;;;;;;16.46;100.00;100958.56;5034522;28;20049;-64
2023/11/19 04:18:35;;;;;;;7.05;1.40;;;;;;;16.45;100.00;100964.44;5035039;28;20059;-64
2023/11/19 04:21:06;;;;;;;7.13;1.67;;;;;;;16.44;100.00;100960.84;5050283;28;20050;-63
2023/11/19 04:23:33;;;;;;;7.97;1.70;;;;;;;16.43;100.00;100961.19;5034203;28;20053;-64
2023/11/19 04:26:04;;;;;;;5.90;1.23;;;;;;;16.53;100.00;100969.94;5017732;28;20060;-64
2023/11/19 04:28:34;;;;;;;10.63;1.80;;;;;;;16.47;100.00;100974.13;5034634;28;20053;-63
2023/11/19 04:31:03;;;;;;;9.55;1.50;;;;;;;16.53;100.00;100972.72;5040498;28;20061;-64
2023/11/19 04:33:30;;;;;;;8.45;1.40;;;;;;;16.61;100.00;100968.22;5055061;28;20365;-63
2023/11/19 04:35:57;;;;;;;8.27;1.90;;;;;;;16.52;100.00;100961.94;5049540;28;20057;-64
2023/11/19 04:38:26;;;;;;;8.20;1.50;;;;;;;16.42;100.00;100960.38;5039668;28;20052;-64
2023/11/19 04:40:53;;;;;;;9.98;1.90;;;;;;;16.39;100.00;100957.47;5051507;28;20053;-64
2023/11/19 04:43:21;;;;;;;13.30;2.03;;;;;;;16.35;100.00;100942.69;5064805;28;20056;-64
2023/11/19 04:45:48;;;;;;;9.82;1.48;;;;;;;16.15;100.00;100958.28;5054562;28;20053;-64
2023/11/19 04:48:15;;;;;;;8.60;1.70;;;;;;;16.28;100.00;100964.69;5054348;28;20050;-63
2023/11/19 04:50:42;;;;;;;11.18;1.70;;;;;;;16.24;100.00;100964.56;5054157;28;20495;-64
2023/11/19 04:53:10;;;;;;;12.35;1.75;;;;;;;16.24;100.00;100967.34;5034721;28;20049;-64
2023/11/19 04:55:37;;;;;;;9.70;2.13;;;;;;;16.12;100.00;100972.03;5034639;28;20068;-63
2023/11/19 04:58:05;;;;;;;8.15;1.67;;;;;;;16.27;100.00;100969.41;5022098;28;20773;-64
2023/11/19 05:00:32;;;;;;;11.15;2.03;;;;;;;16.27;100.00;100974.16;5054075;28;20056;-64
2023/11/19 05:02:59;;;;;;;8.35;1.70;;;;;;;16.02;100.00;100980.84;5042032;28;20067;-63
2023/11/19 05:05:27;;;;;;;11.25;1.95;;;;;;;16.02;100.00;100983.59;5036341;28;20412;-64
2023/11/19 05:07:55;;;;;;;9.25;1.65;;;;;;;16.02;100.00;100989.16;5019207;28;20060;-64
2023/11/19 05:10:22;;;;;;;16.63;2.40;;;;;;;16.13;100.00;100979.22;5053495;28;20053;-64
2023/11/19 05:12:50;;;;;;;8.48;1.83;;;;;;;16.01;100.00;100984.75;5039010;28;20046;-64
2023/11/19 05:15:17;;;;;;;11.00;2.05;;;;;;;16.11;100.00;100987.91;5016648;28;20063;-64
2023/11/19 05:17:45;;;;;;;8.43;1.88;;;;;;;16.35;100.00;100981.59;5033463;28;20053;-64
2023/11/19 05:20:16;;;;;;;8.88;1.75;;;;;;;16.29;100.00;100988.53;5052708;28;20415;-63
2023/11/19 05:22:43;;;;;;;11.80;1.63;;;;;;;16.26;100.00;100975.31;5066889;28;20048;-64
2023/11/19 05:25:10;;;;;;;9.85;1.63;;;;;;;16.19;100.00;100992.56;5053805;28;20057;-63
2023/11/19 05:27:38;;;;;;;11.57;2.42;;;;;;;16.34;100.00;100985.50;5053767;28;20201;-63
2023/11/19 05:30:07;;;;;;;7.93;1.33;;;;;;;16.15;99.22;100991.63;5053041;28;20061;-64
2023/11/19 05:32:34;;;;;;;7.68;1.80;;;;;;;15.84;99.33;100987.72;5053194;28;20146;-64
2023/11/19 05:35:02;;;;;;;9.25;1.75;;;;;;;16.21;100.00;100989.44;5053739;28;20350;-64
2023/11/19 05:37:30;;;;;;;10.02;1.98;;;;;;;16.26;100.00;100998.38;5044803;28;20428;-63
2023/11/19 05:39:57;;;;;;;9.88;1.70;;;;;;;16.09;100.00;100993.00;5050410;28;20508;-63
2023/11/19 05:42:24;;;;;;;8.07;1.40;;;;;;;15.99;100.00;100995.41;5034554;28;20045;-64
2023/11/19 05:44:52;;;;;;;11.30;1.85;;;;;;;15.96;99.70;100993.31;5053375;28;20052;-63
2023/11/19 05:47:19;;;;;;;9.15;2.33;;;;;;;15.90;99.85;101009.38;5077031;28;20057;-63
2023/11/19 05:49:47;;;;;;;9.63;1.75;;;;;;;16.15;99.94;100999.16;5043218;28;20443;-63
2023/11/19 05:52:14;;;;;;;6.55;1.17;;;;;;;16.09;99.54;101006.88;5049996;28;20049;-63
2023/11/19 05:54:41;;;;;;;7.57;1.48;;;;;;;15.89;99.36;101001.38;5016274;28;20053;-65
2023/11/19 05:57:09;;;;;;;10.25;1.80;;;;;;;16.11;99.47;100996.25;5015411;28;20064;-63
2023/11/19 05:59:36;;;;;;;7.97;1.70;;;;;;;15.99;97.70;100998.97;5050944;28;20167;-63
2023/11/19 06:02:04;;;;;;;9.13;2.05;;;;;;;15.91;97.03;100996.31;5051529;28;20052;-64
2023/11/19 06:04:31;;;;;;;9.23;2.15;;;;;;;15.97;97.20;100995.72;5051620;28;20056;-63
2023/11/19 06:06:58;;;;;;;11.23;1.83;;;;;;;15.88;96.13;101006.16;5053899;28;20563;-63
2023/11/19 06:09:25;;;;;;;14.77;2.33;;;;;;;15.89;97.17;101001.38;5016745;28;20064;-63
2023/11/19 06:11:53;;;;;;;13.00;3.08;;;;;;;15.99;96.69;100995.41;5033566;28;20088;-63
2023/11/19 06:14:20;;;;;;;12.07;1.92;;;;;;;15.66;97.87;100999.00;5033083;28;20049;-64
2023/11/19 06:16:47;;;;;;;9.30;2.08;;;;;;;15.81;98.13;101005.06;5015397;28;20046;-64
2023/11/19 06:19:15;;;;;;;10.85;2.15;;;;;;;15.84;96.58;101005.19;5047388;28;20053;-63
2023/11/19 06:21:42;;;;;;;13.85;1.60;;;;;;;15.98;96.38;101010.44;5053435;28;20071;-64
2023/11/19 06:24:09;;;;;;;10.43;1.77;;;;;;;16.15;97.09;101022.19;5068536;28;20455;-64
2023/11/19 06:26:37;;;;;;;13.90;2.25;;;;;;;16.02;94.95;101026.09;5068673;28;20132;-63
2023/11/19 06:29:04;;;;;;;14.68;2.45;;;;;;;16.01;96.65;101026.44;5053220;28;20056;-64
2023/11/19 06:31:31;;;;;;;8.88;1.95;;;;;;;16.02;94.55;101028.88;5059704;28;20131;-63
2023/11/19 06:33:58;;;;;;;13.52;2.17;;;;;;;16.18;94.17;101029.84;5077115;28;20036;-61
2023/11/19 06:36:26;;;;;;;12.18;2.13;;;;;;;16.18;94.67;101029.06;5077410;28;20056;-64
2023/11/19 06:38:53;;;;;;;16.25;2.65;;;;;;;15.86;93.83;101024.28;5068528;28;20546;-64
2023/11/19 06:41:23;;;;;;;16.40;2.42;;;;;;;15.74;94.58;101031.41;5072360;28;20061;-64
2023/11/19 06:43:50;;;;;;;14.45;2.20;;;;;;;16.01;93.04;101040.31;5056917;28;20503;-64
2023/11/19 06:46:17;;;;;;;16.90;2.28;;;;;;;15.88;93.46;101031.16;5066625;28;20044;-65
2023/11/19 06:48:45;;;;;;;13.57;2.58;;;;;;;15.72;93.79;101033.75;5074251;28;20041;-64
2023/11/19 06:51:13;;;;;;;13.65;2.45;;;;;;;15.77;93.34;101033.53;5057032;28;20380;-64
2023/11/19 06:53:40;;;;;;;13.35;2.53;;;;;;;15.79;94.50;101033.19;5056950;28;20071;-64
2023/11/19 06:56:21;;;;;;;15.25;2.45;;;;;;;15.96;94.36;101030.25;5038305;28;20081;-64
2023/11/19 06:58:49;;;;;;;11.75;2.03;;;;;;;15.85;92.00;101031.03;5056593;28;20053;-64
2023/11/19 07:01:17;;;;;;;14.05;2.13;;;;;;;15.75;93.08;101030.28;5056388;28;20061;-63
2023/11/19 07:03:46;;;;;;;11.18;1.95;;;;;;;15.72;95.69;101038.47;5056735;28;20056;-64
2023/11/19 07:06:14;;;;;;;11.60;1.83;;;;;;;15.89;93.80;101038.31;5023182;28;20060;-64
2023/11/19 07:08:44;;;;;;;10.90;2.33;;;;;;;16.02;93.17;101042.78;5056755;28;20053;-63
2023/11/19 07:11:14;;;;;;;17.27;2.85;;;;;;;15.47;92.23;101047.81;5056716;28;20649;-64
2023/11/19 07:13:42;;;;;;;12.80;2.42;;;;;;;15.61;94.00;101038.06;5056311;28;20053;-64
2023/11/19 07:16:12;;;;;;;13.00;2.30;;;;;;;15.47;92.73;101042.25;5057329;28;20044;-63
2023/11/19 07:18:39;;;;;;;;;;;;;;;15.01;89.29;101053.50;5050965;28;20049;-64
2023/11/19 07:21:07;;;;;;;14.60;2.58;;;;;;;15.00;93.53;101047.13;5036279;28;19936;-64
2023/11/19 07:23:34;;;;;;;13.52;2.80;;;;;;;15.06;94.82;101048.56;5035349;28;20060;-63
2023/11/19 07:26:05;;;;;;;15.27;2.90;;;;;;;14.89;93.92;101050.63;5034777;28;20528;-64
2023/11/19 07:28:32;;;;;;;14.15;2.30;;;;;;;15.19;97.09;101046.66;5036131;28;20057;-63
2023/11/19 07:30:59;;;;;;;21.77;3.03;;;;;;;15.51;93.08;101037.66;5050428;28;20072;-64
2023/11/19 07:33:27;;;;;;;13.82;2.10;;;;;;;15.67;89.85;101047.81;5037194;28;20049;-63
2023/11/19 07:35:55;;;;;;;11.65;2.47;;;;;;;15.18;92.46;101061.72;5036096;28;20045;-63
2023/11/19 07:38:22;;;;;;;15.45;2.75;;;;;;;15.45;95.14;101062.03;5023369;28;20049;-63
2023/11/19 07:40:49;;;;;;;15.70;3.40;;;;;;;15.42;93.65;101057.16;5019191;28;20057;-63
2023/11/19 07:43:19;;;;;;;16.30;2.92;;;;;;;15.35;93.25;101058.81;5043283;28;20417;-64
2023/11/19 07:45:48;;;;;;;18.38;3.70;;;;;;;15.21;92.51;101061.03;5043632;28;20048;-63
2023/11/19 07:48:23;;;;;;;13.05;2.60;;;;;;;15.46;94.90;101071.19;5075919;28;20051;-63
2023/11/19 07:50:50;;;;;;;17.65;3.28;;;;;;;15.41;92.18;101074.16;5039947;28;20053;-62
2023/11/19 07:53:18;;;;;;;12.25;2.17;;;;;;;15.53;93.17;101063.94;5054732;28;20911;-63
2023/11/19 07:55:46;;;;;;;19.00;2.80;;;;;;;15.08;93.74;101070.41;5071209;28;20063;-61
2023/11/19 07:58:13;;;;;;;15.38;2.97;;;;;;;15.32;95.23;101060.31;5037754;28;20515;-64
2023/11/19 08:00:41;;;;;;;20.75;4.68;;;;;;;15.71;93.95;101061.81;5050553;28;20049;-64
2023/11/19 08:03:08;;;;;;;14.35;3.50;;;;;;;15.70;92.08;101066.59;5042141;28;20061;-64
2023/11/19 08:05:36;;;;;;;13.18;2.53;;;;;;;15.70;93.77;101058.25;5055618;28;20068;-62
2023/11/19 08:08:03;;;;;;;12.95;2.75;;;;;;;15.69;92.40;101059.41;5038020;28;20492;-61
2023/11/19 08:10:33;;;;;;;11.77;2.10;;;;;;;15.87;91.39;101070.34;5039933;28;20049;-66
2023/11/19 08:13:13;;;;;;;16.65;3.92;;;;;;;15.56;91.96;101066.06;5054686;28;20037;-63
2023/11/19 08:15:44;;;;;;;15.50;2.60;;;;;;;15.84;92.38;101066.31;5056266;28;20423;-64
2023/11/19 08:18:12;;;;;;;16.17;2.92;;;;;;;16.00;90.75;101064.53;5070660;28;20527;-64
2023/11/19 08:20:41;;;;;;;11.77;2.53;;;;;;;16.08;88.50;101062.81;5037402;28;20128;-65
2023/11/19 08:23:13;;;;;;;14.85;2.75;;;;;;;15.70;90.82;101061.03;5037582;28;20068;-64
2023/11/19 08:25:43;;;;;;;13.20;2.85;;;;;;;15.80;90.92;101065.34;5055342;28;20052;-65
2023/11/19 08:28:10;;;;;;;15.98;2.78;;;;;;;15.77;90.76;101071.59;5037345;28;20068;-65
2023/11/19 08:30:38;;;;;;;16.50;2.75;;;;;;;15.55;89.74;101083.06;5037060;28;20064;-64
2023/11/19 08:33:05;;;;;;;15.80;3.38;;;;;;;15.56;92.23;101090.22;5069244;28;20063;-63
2023/11/19 08:35:33;;;;;;;20.02;3.40;;;;;;;15.54;92.40;101092.50;5052578;28;20052;-64
2023/11/19 08:38:01;;;;;;;15.77;2.47;;;;;;;15.62;91.70;101084.13;5036654;28;20053;-63
2023/11/19 08:40:29;;;;;;;17.40;3.33;;;;;;;15.68;90.46;101087.50;5037174;28;20052;-65
2023/11/19 08:42:57;;;;;;;15.68;3.53;;;;;;;15.67;89.97;101080.34;5036997;28;20055;-65
2023/11/19 08:45:31;;;;;;;18.50;5.32;;;;;;;15.75;90.63;101083.06;5058354;28;20621;-62
2023/11/19 08:47:59;;;;;;;27.52;5.35;;;;;;;15.86;89.89;101093.75;5074063;28;20058;-65
2023/11/19 08:50:28;;;;;;;15.77;2.88;;;;;;;15.85;89.98;101089.34;5047698;28;20061;-64
2023/11/19 08:52:56;;;;;;;18.60;2.83;;;;;;;15.79;88.85;101102.63;5054100;28;20061;-64
2023/11/19 08:55:23;;;;;;;18.95;2.85;;;;;;;15.56;90.30;101104.09;5050301;28;20054;-65
2023/11/19 08:57:50;;;;;;;17.30;3.15;;;;;;;15.77;90.16;101102.16;5037956;28;20053;-62
2023/11/19 09:00:18;;;;;;;16.45;3.45;;;;;;;15.54;88.27;101110.00;5053438;28;20060;-64
2023/11/19 09:02:45;;;;;;;16.92;3.60;;;;;;;15.71;90.65;101106.28;5036181;28;20045;-64
2023/11/19 09:05:12;;;;;;;13.15;3.00;;;;;;;15.81;90.64;101116.19;5054445;28;20400;-64
2023/11/19 09:07:40;;;;;;;20.83;3.85;;;;;;;15.92;87.87;101112.63;5053957;28;20060;-64
2023/11/19 09:10:08;;;;;;;19.33;4.03;;;;;;;15.93;87.34;101128.19;5054327;28;20212;-64
2023/11/19 09:12:36;;;;;;;10.88;2.70;;;;;;;16.28;88.40;101126.72;5053982;28;20053;-64
2023/11/19 09:15:03;;;;;;;18.17;3.15;;;;;;;16.07;85.27;101136.22;5054187;28;20056;-64
2023/11/19 09:17:30;;;;;;;16.73;3.83;;;;;;;15.99;85.96;101126.00;5049581;28;20048;-63
2023/11/19 09:19:58;;;;;;;19.85;2.90;;;;;;;15.90;86.69;101128.03;5033961;28;20053;-64
2023/11/19 09:22:25;;;;;;;19.75;4.13;;;;;;;15.95;84.01;101133.38;5043960;28;20064;-64
2023/11/19 09:24:53;;;;;;;13.40;3.35;;;;;;;15.89;85.15;101131.94;5036446;28;20048;-65
2023/11/19 09:27:20;;;;;;;19.92;3.95;;;;;;;15.79;85.53;101135.97;5053997;28;20535;-65
2023/11/19 09:29:50;;;;;;;19.95;3.78;;;;;;;15.84;85.77;101132.97;5020224;28;20563;-64
2023/11/19 09:32:17;;;;;;;15.80;3.57;;;;;;;16.21;85.96;101136.75;5063493;28;20062;-60
2023/11/19 09:34:45;;;;;;;20.20;3.92;;;;;;;16.05;85.94;101133.78;5082734;28;20053;-61
2023/11/19 09:37:12;;;;;;;17.40;3.28;;;;;;;16.18;84.56;101126.31;5052368;28;20056;-60
2023/11/19 09:39:45;;;;;;;;;;;;;;;16.25;84.05;101121.03;5054177;28;20049;-61
2023/11/19 09:42:13;;;;;;;19.48;3.40;;;;;;;16.22;82.84;101118.91;5035724;28;19920;-62
2023/11/19 09:44:43;;;;;;;16.80;3.55;;;;;;;16.41;84.71;101127.56;5037704;28;20045;-62
2023/11/19 09:47:12;;;;;;;17.63;3.33;;;;;;;16.02;80.60;101116.97;5036384;28;20064;-60
2023/11/19 09:49:40;;;;;;;16.33;3.13;;;;;;;16.21;82.88;101111.75;5060793;28;20064;-61
2023/11/19 09:52:08;;;;;;;19.13;3.53;;;;;;;16.19;81.67;101117.66;5039821;28;20037;-62
2023/11/19 09:54:36;;;;;;;22.35;3.67;;;;;;;16.04;81.83;101117.47;5050187;28;20045;-60
2023/11/19 09:57:04;;;;;;;20.15;3.50;;;;;;;16.28;81.61;101117.56;5053620;28;20072;-58
2023/11/19 09:59:32;;;;;;;18.67;3.80;;;;;;;16.24;83.59;101111.06;5028442;28;20392;-59
2023/11/19 10:02:00;;;;;;;17.63;3.13;;;;;;;16.33;83.63;101117.34;5068206;28;20053;-61
2023/11/19 10:04:30;;;;;;;21.02;3.72;;;;;;;16.72;83.01;101127.91;5034929;28;20182;-59
2023/11/19 10:06:57;;;;;;;21.77;5.38;;;;;;;16.73;81.73;101112.84;5053930;28;20072;-62
2023/11/19 10:09:25;;;;;;;21.25;3.58;;;;;;;16.61;79.01;101113.66;5050954;28;20061;-64
2023/11/19 10:11:55;;;;;;;18.48;4.28;;;;;;;16.72;78.96;101117.59;5036291;28;20057;-63
2023/11/19 10:14:23;;;;;;;23.83;4.00;;;;;;;16.49;77.22;101115.59;5053440;28;20060;-62
2023/11/19 10:16:51;;;;;;;21.05;3.78;;;;;;;16.49;77.60;101118.38;5029111;28;20053;-64
2023/11/19 10:19:20;;;;;;;19.58;4.60;;;;;;;16.71;78.05;101121.53;5044611;28;20053;-63
2023/11/19 10:21:48;;;;;;;19.57;3.90;;;;;;;16.41;77.55;101127.56;5031962;28;20048;-63
2023/11/19 10:24:15;;;;;;;18.05;3.67;;;;;;;16.74;76.31;101114.47;5064101;28;20045;-63
2023/11/19 10:27:00;;;;;;;23.30;3.95;;;;;;;16.77;74.26;101103.47;5042167;28;20049;-64
2023/11/19 10:29:30;;;;;;;20.23;3.72;;;;;;;16.81;74.95;101112.75;5051500;28;20045;-63
2023/11/19 10:32:18;;;;;;;21.90;4.53;;;;;;;16.68;74.87;101116.66;5018858;28;20067;-63
2023/11/19 10:35:05;;;;;;;23.88;4.78;;;;;;;16.75;73.08;101100.22;5051552;28;20552;-60
2023/11/19 10:37:35;;;;;;;15.60;3.53;;;;;;;16.95;70.45;101103.25;5044314;28;20432;-61
2023/11/19 10:40:05;;;;;;;16.98;3.67;;;;;;;16.93;71.56;101098.03;5051380;28;20484;-59
2023/11/19 10:42:32;;;;;;;23.63;4.22;;;;;;;16.96;70.70;101091.78;5052425;28;20748;-63
2023/11/19 10:45:00;;;;;;;21.20;4.30;;;;;;;17.01;71.06;101094.34;5038787;28;20038;-63
2023/11/19 10:47:30;;;;;;;20.33;4.13;;;;;;;17.32;70.06;101097.34;5050565;28;20072;-64
2023/11/19 10:50:00;;;;;;;16.17;3.72;;;;;;;17.31;68.69;101106.84;5051831;28;20045;-63
2023/11/19 10:52:28;;;;;;;23.67;5.03;;;;;;;17.50;67.94;101093.19;5068237;28;20049;-64
2023/11/19 10:54:56;;;;;;;24.30;4.25;;;;;;;17.57;67.15;101098.16;5042422;28;20052;-63
2023/11/19 10:57:27;;;;;;;22.33;4.35;;;;;;;16.93;68.63;101094.47;5044333;28;20153;-63
2023/11/19 11:00:01;;;;;;;27.50;4.32;;;;;;;16.85;68.92;101098.97;5036506;28;20053;-62
2023/11/19 11:02:31;;;;;;;25.92;5.63;;;;;;;16.46;70.17;101099.53;5044550;28;20049;-63
2023/11/19 11:04:58;;;;;;;31.75;4.68;;;;;;;16.58;70.55;101091.28;5052650;28;20045;-62
2023/11/19 11:07:26;;;;;;;22.73;4.10;;;;;;;16.64;71.86;101081.53;5030454;28;20060;-64
2023/11/19 11:10:07;;;;;;;22.95;4.57;;;;;;;16.45;70.24;101089.56;5058704;28;20056;-62
2023/11/19 11:12:39;;;;;;;26.20;6.25;;;;;;;16.90;70.68;101087.59;5049968;28;20056;-57
2023/11/19 11:15:07;;;;;;;25.95;4.65;;;;;;;16.55;69.48;101086.38;5050818;28;20053;-64
2023/11/19 11:17:35;;;;;;;22.30;4.20;;;;;;;16.19;70.37;101091.81;5051705;28;20408;-62
2023/11/19 11:20:02;;;;;;;23.48;4.47;;;;;;;15.62;72.40;101091.66;5073717;28;20098;-61
2023/11/19 11:22:37;;;;;;;23.63;5.40;;;;;;;15.84;72.35;101085.75;5056919;28;20083;-63
2023/11/19 11:25:23;;;;;;;22.77;4.55;;;;;;;15.81;71.33;101080.88;5056419;28;20041;-62